Time;durP1;ratioP1;P1;durP2;ratioP2;P2;SDS_P1;SDS_P2;PMS_P1;PMS_P2;Temp;Humidity;BMP_temperature;BMP_pressure;BME280_temperature;BME280_humidity;BME280_pressure;Samples;Min_cycle;Max_cycle;Signal;HPM_P1;HPM_P2
2022/05/30 00:02:47;;;;;;;0.20;0.10;;;18.70;99.90;;;;;;26436948;22;20171;-79
2022/05/30 00:12:51;;;;;;;0.20;0.00;;;18.50;99.90;;;;;;26436347;22;20198;-78
2022/05/30 00:22:56;;;;;;;0.20;0.00;;;18.60;99.90;;;;;;26406203;22;20174;-79
2022/05/30 00:33:00;;;;;;;0.20;0.10;;;18.30;99.90;;;;;;26432047;22;20190;-79
2022/05/30 00:43:27;;;;;;;0.20;0.10;;;18.20;99.90;;;;;;26407414;22;20225;-78
2022/05/30 00:53:34;;;;;;;0.20;0.00;;;18.20;99.90;;;;;;26433910;22;20227;-79
2022/05/30 01:14:03;;;;;;;0.20;0.00;;;18.20;99.90;;;;;;26432796;22;20205;-79
2022/05/30 01:24:27;;;;;;;0.20;0.10;;;18.10;99.90;;;;;;26434178;22;20166;-80
2022/05/30 01:34:32;;;;;;;0.20;0.00;;;18.20;99.90;;;;;;26432850;22;20204;-77
2022/05/30 01:44:36;;;;;;;0.20;0.10;;;18.00;99.90;;;;;;26401590;22;20173;-77
2022/05/30 01:54:41;;;;;;;0.20;0.10;;;18.30;99.90;;;;;;26403953;22;20203;-79
2022/05/30 02:04:45;;;;;;;0.20;0.10;;;18.50;99.90;;;;;;26402054;22;20163;-78
2022/05/30 02:14:50;;;;;;;0.20;0.00;;;18.50;99.90;;;;;;26429663;22;20198;-79
2022/05/30 02:24:54;;;;;;;0.20;0.10;;;18.70;99.90;;;;;;26429699;22;20668;-77
2022/05/30 06:27:52;;;;;;;0.20;0.00;;;20.50;99.90;;;;;;26383580;22;20210;-76
2022/05/30 06:37:56;;;;;;;0.20;0.00;;;21.10;99.90;;;;;;26289921;22;20178;-80
2022/05/30 06:48:01;;;;;;;0.20;0.00;;;21.60;99.90;;;;;;26294196;22;20159;-76
2022/05/30 06:58:14;;;;;;;0.20;0.00;;;22.00;99.90;;;;;;26262800;22;20202;-77
2022/05/30 07:08:20;;;;;;;0.20;0.10;;;22.30;99.90;;;;;;26290994;22;20154;-77
2022/05/30 07:18:24;;;;;;;0.20;0.00;;;22.00;99.90;;;;;;26262649;22;20193;-76
2022/05/30 07:28:30;;;;;;;0.20;0.00;;;21.90;99.90;;;;;;26292907;22;20197;-73
2022/05/30 07:38:34;;;;;;;0.20;0.00;;;22.00;99.90;;;;;;26298150;22;20179;-75
2022/05/30 07:48:41;;;;;;;0.20;0.00;;;21.80;99.90;;;;;;26272641;22;20167;-73
2022/05/30 07:58:46;;;;;;;0.20;0.07;;;21.90;99.90;;;;;;26301194;22;20199;-69
2022/05/30 08:08:52;;;;;;;0.20;0.00;;;22.00;99.90;;;;;;26270781;22;20159;-73
2022/05/30 08:18:56;;;;;;;0.20;0.00;;;22.10;99.90;;;;;;26301288;22;20186;-74
2022/05/30 08:29:01;;;;;;;0.20;0.00;;;22.10;99.90;;;;;;26300627;22;20186;-74
2022/05/30 08:49:33;;;;;;;0.20;0.00;;;22.20;99.90;;;;;;26298027;22;20158;-74
2022/05/30 09:00:04;;;;;;;0.20;0.07;;;22.50;99.90;;;;;;26293737;22;20198;-76
2022/05/30 09:10:14;;;;;;;0.20;0.10;;;22.20;99.90;;;;;;26286014;22;20158;-73
2022/05/30 09:20:21;;;;;;;0.20;0.00;;;22.30;99.90;;;;;;26257028;22;20217;-73
2022/05/30 09:30:35;;;;;;;0.20;0.00;;;22.60;99.90;;;;;;26342071;22;20201;-72
2022/05/30 09:40:59;;;;;;;0.20;0.00;;;22.40;99.90;;;;;;26415909;22;20170;-73
2022/05/30 09:51:05;;;;;;;0.20;0.00;;;22.80;99.90;;;;;;26413620;22;20486;-73
2022/05/30 10:01:10;;;;;;;0.20;0.00;;;22.60;99.90;;;;;;26416976;22;20162;-73
2022/05/30 10:11:32;;;;;;;0.20;0.00;;;23.40;99.90;;;;;;26416843;22;20186;-74
2022/05/30 10:32:27;;;;;;;0.20;0.00;;;24.00;99.90;;;;;;26415238;22;20198;-74
2022/05/30 10:42:38;;;;;;;0.20;0.00;;;24.00;99.90;;;;;;26414284;22;20150;-75
2022/05/30 10:52:48;;;;;;;0.20;0.00;;;23.90;99.90;;;;;;26424741;22;20193;-74
2022/05/30 11:03:00;;;;;;;0.20;0.00;;;24.40;99.90;;;;;;26423198;22;20146;-73
2022/05/30 11:13:24;;;;;;;0.20;0.00;;;24.10;99.90;;;;;;26408331;22;20190;-74
2022/05/30 11:23:28;;;;;;;0.20;0.00;;;24.60;99.90;;;;;;26383542;22;20195;-74
2022/05/30 11:33:52;;;;;;;0.20;0.10;;;25.40;99.90;;;;;;26410411;22;20198;-74
2022/05/30 11:44:13;;;;;;;0.20;0.00;;;25.80;99.90;;;;;;26411406;22;20162;-75
2022/05/30 11:54:36;;;;;;;0.20;0.00;;;26.10;99.90;;;;;;26383798;22;20201;-76
2022/05/30 12:05:07;;;;;;;0.20;0.00;;;26.60;99.90;;;;;;26382850;22;20166;-74
2022/05/30 12:15:56;;;;;;;0.20;0.00;;;26.50;99.90;;;;;;26384287;22;20208;-75
2022/05/30 12:26:00;;;;;;;0.20;0.00;;;25.60;99.90;;;;;;26389059;22;20163;-75
2022/05/30 12:36:37;;;;;;;0.20;0.00;;;25.70;99.90;;;;;;26408011;22;20269;-78
2022/05/30 12:46:51;;;;;;;0.20;0.00;;;26.50;99.90;;;;;;26386253;22;20154;-75
2022/05/30 12:57:06;;;;;;;0.20;0.00;;;26.10;99.90;;;;;;26385219;22;20254;-75
2022/05/30 13:07:18;;;;;;;0.20;0.10;;;26.60;99.90;;;;;;26384955;22;20188;-76
2022/05/30 13:17:38;;;;;;;0.20;0.00;;;26.70;99.90;;;;;;26412137;22;20174;-74
2022/05/30 13:27:46;;;;;;;0.20;0.00;;;26.80;99.90;;;;;;26414459;22;20277;-79
2022/05/30 13:37:58;;;;;;;0.20;0.00;;;27.20;99.90;;;;;;26414405;22;20261;-75
2022/05/30 13:48:06;;;;;;;0.20;0.00;;;27.50;99.90;;;;;;26415116;22;20173;-77
2022/05/30 13:58:37;;;;;;;0.20;0.00;;;26.50;99.90;;;;;;26419962;22;20190;-76
2022/05/30 14:08:41;;;;;;;0.20;0.00;;;26.80;99.90;;;;;;26423222;22;20157;-78
2022/05/30 14:18:48;;;;;;;0.20;0.10;;;27.90;99.90;;;;;;26392263;22;20194;-78
2022/05/30 14:28:58;;;;;;;0.20;0.00;;;26.90;99.90;;;;;;26395780;22;20186;-75
2022/05/30 14:39:12;;;;;;;0.20;0.00;;;27.70;99.90;;;;;;26393482;22;20182;-77
2022/05/30 14:49:19;;;;;;;0.20;0.00;;;27.40;99.90;;;;;;26419859;22;20170;-77
2022/05/30 14:59:34;;;;;;;0.20;0.05;;;27.50;99.90;;;;;;26418919;22;20185;-76
2022/05/30 15:09:44;;;;;;;0.20;0.10;;;27.70;99.90;;;;;;26407959;22;20142;-74
2022/05/30 15:19:53;;;;;;;0.20;0.00;;;27.70;99.90;;;;;;26380712;22;20185;-76
2022/05/30 15:29:56;;;;;;;0.20;0.00;;;27.80;99.90;;;;;;26404852;22;20186;-75
2022/05/30 15:40:02;;;;;;;0.20;0.00;;;27.20;99.90;;;;;;26379777;22;20189;-75
2022/05/30 15:50:14;;;;;;;0.20;0.00;;;27.00;99.90;;;;;;26382652;22;20198;-71
2022/05/30 16:00:22;;;;;;;0.20;0.10;;;27.00;99.90;;;;;;26412911;22;20190;-76
2022/05/30 16:10:25;;;;;;;0.20;0.00;;;26.00;99.90;;;;;;26359445;22;20165;-75
2022/05/30 16:20:31;;;;;;;0.20;0.00;;;26.10;99.90;;;;;;26411476;22;20178;-74
2022/05/30 16:30:36;;;;;;;0.20;0.00;;;24.60;99.90;;;;;;26412399;22;20201;-74
2022/05/30 16:40:41;;;;;;;0.20;0.10;;;24.80;99.90;;;;;;26393600;22;20194;-77
2022/05/30 16:50:45;;;;;;;0.20;0.00;;;24.60;99.90;;;;;;26418666;22;20230;-74
2022/05/30 17:00:58;;;;;;;0.20;0.00;;;23.70;99.90;;;;;;26419859;22;20185;-75
2022/05/30 17:11:01;;;;;;;0.20;0.00;;;23.10;99.90;;;;;;26419397;22;21016;-70
2022/05/30 17:21:07;;;;;;;0.20;0.00;;;22.20;99.90;;;;;;26421149;22;20219;-75
2022/05/30 17:31:14;;;;;;;0.20;0.00;;;21.80;99.90;;;;;;26395221;22;20186;-77
2022/05/30 17:41:20;;;;;;;0.20;0.00;;;21.80;99.90;;;;;;26394792;22;20871;-77
2022/05/30 17:51:28;;;;;;;0.20;0.00;;;21.80;99.90;;;;;;26419618;22;20162;-76
2022/05/30 18:01:34;;;;;;;0.20;0.00;;;21.70;99.90;;;;;;26418633;22;20182;-76
2022/05/30 18:11:47;;;;;;;0.20;0.00;;;21.50;99.90;;;;;;26365280;22;20170;-74
2022/05/30 18:22:01;;;;;;;0.20;0.10;;;21.50;99.90;;;;;;26419687;22;20189;-74
2022/05/30 18:32:21;;;;;;;0.20;0.00;;;21.20;99.90;;;;;;26420755;22;20202;-75
2022/05/30 18:42:33;;;;;;;0.20;0.00;;;21.30;99.90;;;;;;26417964;22;20196;-76
2022/05/30 18:52:40;;;;;;;0.20;0.00;;;21.40;99.90;;;;;;26416455;22;20189;-72
2022/05/30 19:02:48;;;;;;;0.20;0.00;;;21.30;99.90;;;;;;26421150;22;20173;-75
2022/05/30 19:12:55;;;;;;;0.20;0.00;;;21.20;99.90;;;;;;26419964;22;20193;-75
2022/05/30 19:23:00;;;;;;;0.20;0.03;;;21.10;99.90;;;;;;26390561;22;20176;-75
2022/05/30 19:33:04;;;;;;;0.20;0.00;;;21.10;99.90;;;;;;26421519;22;20201;-76
2022/05/30 19:43:10;;;;;;;0.20;0.00;;;21.10;99.90;;;;;;26399819;22;20161;-74
2022/05/30 19:53:14;;;;;;;0.20;0.00;;;21.10;99.90;;;;;;26428827;22;20186;-74
2022/05/30 20:03:19;;;;;;;0.20;0.10;;;21.20;99.90;;;;;;26430690;22;20173;-75
2022/05/30 20:13:23;;;;;;;0.20;0.00;;;20.90;99.90;;;;;;26401302;22;20186;-74
2022/05/30 20:23:48;;;;;;;0.20;0.03;;;20.40;99.90;;;;;;26429686;22;20173;-77
2022/05/30 20:33:52;;;;;;;0.20;0.10;;;20.30;99.90;;;;;;26422313;22;20194;-76
2022/05/30 20:44:00;;;;;;;0.20;0.00;;;20.40;99.90;;;;;;26430409;22;20177;-74
2022/05/30 20:54:04;;;;;;;0.20;0.03;;;20.10;99.90;;;;;;26402507;22;20219;-75
2022/05/30 21:04:10;;;;;;;0.20;0.00;;;19.80;99.90;;;;;;26402533;22;20207;-75
2022/05/30 21:14:14;;;;;;;0.20;0.07;;;19.50;99.90;;;;;;26400876;22;20185;-74
2022/05/30 21:24:20;;;;;;;0.20;0.10;;;19.50;99.90;;;;;;26401333;22;20169;-77
2022/05/30 21:34:33;;;;;;;0.20;0.00;;;19.40;99.90;;;;;;26397949;22;20201;-79
2022/05/30 21:44:38;;;;;;;0.20;0.10;;;19.10;99.90;;;;;;26431503;22;20162;-75
2022/05/30 21:54:42;;;;;;;0.20;0.00;;;19.10;99.90;;;;;;26431046;22;20201;-77
2022/05/30 22:04:47;;;;;;;0.20;0.03;;;18.90;99.90;;;;;;26432086;22;20162;-77
2022/05/30 22:14:51;;;;;;;0.20;0.07;;;18.70;99.90;;;;;;26431150;22;20189;-76
2022/05/30 22:24:56;;;;;;;0.20;0.00;;;18.50;99.90;;;;;;26402491;22;20158;-75
2022/05/30 22:35:00;;;;;;;0.20;0.10;;;18.20;99.90;;;;;;26429473;22;20194;-77
2022/05/30 22:45:07;;;;;;;0.20;0.00;;;18.20;99.90;;;;;;26402189;22;20199;-78
2022/05/30 22:55:14;;;;;;;0.20;0.00;;;18.00;99.90;;;;;;26429343;22;20181;-77
2022/05/30 23:05:21;;;;;;;0.20;0.10;;;18.00;99.90;;;;;;26430259;22;20163;-76
2022/05/30 23:15:26;;;;;;;0.20;0.10;;;17.80;99.90;;;;;;26428829;22;20239;-76
2022/05/30 23:25:32;;;;;;;0.20;0.10;;;17.90;99.90;;;;;;26428022;22;20172;-76
2022/05/30 23:35:36;;;;;;;0.20;0.10;;;17.80;99.90;;;;;;26429099;22;20193;-76
2022/05/30 23:45:42;;;;;;;0.20;0.00;;;17.80;99.90;;;;;;26399456;22;20200;-77
2022/05/30 23:55:47;;;;;;;0.20;0.00;;;17.60;99.90;;;;;;26403629;22;20190;-76
